Airfield :
LOGIN :

Register | Disclaimer

   EN    FR    IT 

 










Legend :    VFR   Marginal VFR   IFR   Intensive IFR   Very Intensive IFR
Visi :
Ceiling :
>= 8 km
>= 3000ft
5 to 8 km
1000 to 3000 ft
1500m to 5 km
500 to 1000 ft
800 to 1500m
200 to 500 ft
< 800m
< 200 ft
Symbols :   Thunderstorms  Fog  Heavy snow  Heavy precipitations  Wind > 20 kt
SIGMETs :     Misc.  Thunderstorms  Icing  Turbulence  Mountain Waves  Volcanic Ashes







- Airport Elevation : 47 ft
- IATA code : CBG
- Download approach charts


EGSC - Cambridge

CURRENT METAR :
  • 171420Z 23014KT 9999 SCT048 22/10 Q1016

EXPIRED METARs :
  • 171350Z 21010KT 180V240 9999 SCT048 21/10 Q1016
  • 171320Z 20010KT 9999 SCT040 22/10 Q1016
  • 171250Z 21011KT 9999 SCT040 21/10 Q1016
  • 171220Z 21010KT 9999 SCT038 21/10 Q1017
  • 171150Z 21009G19KT 160V270 9999 SCT038 20/11 Q1017

TAF TAF EGSC
Valid from the 17 at 15:00 until the 17 at 19:00 UTC


171401Z 1715/1719 21012KT 9999 SCT035
No reported NOTAMs for that airfield.



MET'MAP, your aeronautical weather chart ! - Copyright ORBIFLY December 2007 - Disclaimer

ORBIFLY MET'MAP TEAM :

Programming & Development : Alexandra Zaïnal
Concept & Development : Baudouin d'Aumeries
Co-Development & Prog : Marc-Olivier Méhu
Technical & hardware support : Manuel Goepfert

Contact : metmap@orbifly.com




SOURCES & CREDITS :

   NOAA